Time;durP1;ratioP1;P1;durP2;ratioP2;P2;SDS_P1;SDS_P2;PMS_P1;PMS_P2;Temp;Humidity;BMP_temperature;BMP_pressure;BME280_temperature;BME280_humidity;BME280_pressure;Samples;Min_cycle;Max_cycle;Signal;HPM_P1;HPM_P2
2022/05/24 00:00:01;;;;;;;21.13;18.73;;;15.00;99.90;;;;;;5068874;28;20424;-39
2022/05/24 00:02:27;;;;;;;21.10;19.00;;;15.10;99.90;;;;;;5066673;28;20419;-39
2022/05/24 00:04:53;;;;;;;24.17;20.20;;;15.10;99.90;;;;;;5068765;28;20451;-41
2022/05/24 00:07:18;;;;;;;21.87;19.67;;;15.10;99.90;;;;;;5067098;28;20455;-40
2022/05/24 00:09:44;;;;;;;22.90;20.43;;;15.10;99.90;;;;;;5067210;28;20182;-40
2022/05/24 00:12:10;;;;;;;25.37;20.80;;;15.10;99.90;;;;;;5060140;28;20193;-40
2022/05/24 00:17:20;;;;;;;22.23;19.90;;;15.10;99.90;;;;;;5070792;28;20216;-40
2022/05/24 00:19:46;;;;;;;23.13;20.73;;;15.20;99.90;;;;;;5072817;28;20423;-44
2022/05/24 00:22:12;;;;;;;24.03;20.77;;;15.10;99.90;;;;;;5072414;28;20438;-40
2022/05/24 00:24:37;;;;;;;21.83;18.60;;;15.10;99.90;;;;;;5072852;28;20465;-40
2022/05/24 00:27:03;;;;;;;20.33;18.23;;;15.10;99.90;;;;;;5052293;28;20666;-40
2022/05/24 00:29:29;;;;;;;22.00;18.80;;;15.10;99.90;;;;;;5070087;28;20200;-44
2022/05/24 00:31:54;;;;;;;20.53;18.33;;;15.20;99.90;;;;;;5071121;28;20481;-45
2022/05/24 00:34:20;;;;;;;19.77;17.77;;;15.20;99.90;;;;;;5072543;28;20207;-42
2022/05/24 00:36:46;;;;;;;22.37;19.10;;;15.20;99.90;;;;;;5071620;28;20193;-39
2022/05/24 00:39:11;;;;;;;21.17;18.90;;;15.10;99.90;;;;;;5072289;28;20185;-41
2022/05/24 00:41:40;;;;;;;20.47;17.97;;;15.10;99.90;;;;;;5069542;28;20603;-39
2022/05/24 00:44:21;;;;;;;18.90;17.00;;;15.10;99.90;;;;;;5061672;28;20262;-41
2022/05/24 00:46:59;;;;;;;18.57;16.57;;;15.00;99.90;;;;;;5064688;28;21033;-40
2022/05/24 00:49:32;;;;;;;18.90;16.90;;;15.00;99.90;;;;;;5071917;28;20993;-39
2022/05/24 00:52:20;;;;;;;18.00;15.40;;;15.10;99.90;;;;;;5072067;28;20419;-40
2022/05/24 00:54:46;;;;;;;19.30;16.37;;;15.10;99.90;;;;;;5070832;28;20415;-42
2022/05/24 00:57:39;;;;;;;16.37;14.77;;;15.20;99.90;;;;;;5067534;28;20447;-39
2022/05/24 01:00:12;;;;;;;19.57;16.10;;;15.20;99.90;;;;;;5067642;28;20219;-41
2022/05/24 01:02:38;;;;;;;17.20;15.40;;;15.30;99.90;;;;;;5068116;28;20537;-41
2022/05/24 01:05:06;;;;;;;17.10;15.13;;;15.30;99.90;;;;;;5071890;28;20422;-41
2022/05/24 01:07:32;;;;;;;17.00;15.20;;;15.30;99.90;;;;;;5071284;28;20419;-41
2022/05/24 01:10:12;;;;;;;18.33;16.27;;;15.30;99.90;;;;;;5071828;28;20754;-41
2022/05/24 01:12:46;;;;;;;15.33;13.93;;;15.10;99.90;;;;;;5064725;28;20699;-41
2022/05/24 01:15:14;;;;;;;17.90;15.17;;;15.20;99.90;;;;;;5069502;28;20441;-42
2022/05/24 01:17:40;;;;;;;16.73;13.67;;;15.10;99.90;;;;;;5071005;28;20889;-40
2022/05/24 01:20:07;;;;;;;15.70;14.10;;;15.20;99.90;;;;;;5071653;28;20531;-41
2022/05/24 01:22:53;;;;;;;16.70;14.90;;;15.20;99.90;;;;;;5071582;28;20495;-40
2022/05/24 01:25:30;;;;;;;15.63;14.00;;;15.10;99.90;;;;;;5071155;28;20426;-39
2022/05/24 01:27:57;;;;;;;16.33;14.63;;;15.00;99.90;;;;;;5062454;28;20478;-40
2022/05/24 01:30:22;;;;;;;15.50;13.37;;;15.10;99.90;;;;;;5069687;28;20502;-39
2022/05/24 01:38:21;;;;;;;16.20;13.60;;;15.10;99.90;;;;;;5058347;28;20434;-39
2022/05/24 01:40:49;;;;;;;16.93;15.00;;;15.10;99.90;;;;;;5071301;28;21021;-40
2022/05/24 01:43:17;;;;;;;15.77;14.17;;;15.00;99.90;;;;;;5059046;28;20555;-40
2022/05/24 01:45:50;;;;;;;16.40;14.63;;;15.00;99.90;;;;;;5070823;28;20419;-40
2022/05/24 01:48:20;;;;;;;17.93;14.57;;;15.10;99.90;;;;;;5070585;28;20446;-45
2022/05/24 01:50:47;;;;;;;15.73;14.10;;;15.00;99.90;;;;;;5070983;28;20420;-39
2022/05/24 01:53:19;;;;;;;15.50;13.60;;;15.00;99.90;;;;;;5069937;28;20427;-42
2022/05/24 01:55:50;;;;;;;18.13;15.87;;;15.10;99.90;;;;;;5070819;28;20439;-40
2022/05/24 01:58:18;;;;;;;19.00;16.93;;;15.10;99.90;;;;;;5059478;28;20458;-43
2022/05/24 02:01:03;;;;;;;17.37;15.67;;;14.90;99.90;;;;;;5070911;28;20488;-43
2022/05/24 02:03:28;;;;;;;18.50;15.83;;;15.00;99.90;;;;;;5070845;28;20490;-42
2022/05/24 02:05:54;;;;;;;19.00;17.00;;;14.90;99.90;;;;;;5070749;28;20472;-40
2022/05/24 02:08:20;;;;;;;23.17;16.90;;;14.90;99.90;;;;;;5070132;28;20189;-43
2022/05/24 02:10:59;;;;;;;18.23;16.33;;;14.90;99.90;;;;;;5070535;28;20217;-42
2022/05/24 02:13:30;;;;;;;18.20;16.33;;;14.90;99.90;;;;;;5060897;28;20803;-39
2022/05/24 02:15:59;;;;;;;19.23;16.37;;;15.00;99.90;;;;;;5070622;28;20420;-40
2022/05/24 02:18:26;;;;;;;20.20;17.20;;;15.00;99.90;;;;;;5068711;28;20435;-39
2022/05/24 02:20:52;;;;;;;19.97;17.93;;;15.00;99.90;;;;;;5070345;28;20415;-40
2022/05/24 02:23:19;;;;;;;19.90;17.80;;;15.10;99.90;;;;;;5070377;28;20469;-40
2022/05/24 02:25:54;;;;;;;20.70;18.43;;;15.10;99.90;;;;;;5070386;28;20538;-40
2022/05/24 02:28:24;;;;;;;17.90;16.00;;;15.10;99.90;;;;;;5063431;28;21134;-40
2022/05/24 02:30:57;;;;;;;21.97;17.63;;;15.20;99.90;;;;;;5079191;28;20451;-42
2022/05/24 02:33:23;;;;;;;20.50;17.40;;;15.20;99.90;;;;;;5068506;28;20423;-42
2022/05/24 02:35:50;;;;;;;18.20;16.17;;;15.20;99.90;;;;;;5068697;28;20793;-40
2022/05/24 02:38:16;;;;;;;18.50;16.23;;;15.20;99.90;;;;;;5068758;28;20865;-45
2022/05/24 02:43:27;;;;;;;20.53;17.63;;;15.20;99.90;;;;;;5059823;28;20878;-39
2022/05/24 02:45:52;;;;;;;17.67;15.70;;;15.20;99.90;;;;;;5066097;28;20595;-39
2022/05/24 02:48:18;;;;;;;20.40;17.67;;;15.20;99.90;;;;;;5069075;28;20538;-39
2022/05/24 02:50:44;;;;;;;17.73;15.93;;;15.20;99.90;;;;;;5068678;28;20209;-41
2022/05/24 02:53:10;;;;;;;18.30;16.40;;;15.20;99.90;;;;;;5068423;28;20682;-39
2022/05/24 02:55:35;;;;;;;17.53;15.03;;;15.20;99.90;;;;;;5069866;28;20201;-40
2022/05/24 02:58:08;;;;;;;16.83;15.07;;;15.20;99.90;;;;;;5099353;27;20544;-38
2022/05/24 03:00:34;;;;;;;17.07;15.23;;;15.20;99.90;;;;;;5084932;28;20502;-40
2022/05/24 03:03:00;;;;;;;17.43;15.53;;;15.10;99.90;;;;;;5086525;28;20667;-39
2022/05/24 03:05:27;;;;;;;17.20;15.40;;;15.10;99.90;;;;;;5085229;28;20476;-42
2022/05/24 03:10:37;;;;;;;15.37;13.77;;;15.00;99.90;;;;;;5086339;28;20916;-38
2022/05/24 03:15:49;;;;;;;16.63;14.93;;;15.00;99.90;;;;;;5085150;28;20484;-39
2022/05/24 03:18:17;;;;;;;17.20;15.17;;;14.80;99.90;;;;;;5085594;28;20484;-41
2022/05/24 03:20:43;;;;;;;17.50;14.40;;;14.70;99.90;;;;;;5086396;28;21031;-37
2022/05/24 03:23:10;;;;;;;19.20;15.43;;;14.70;99.90;;;;;;5085981;28;20507;-38
2022/05/24 03:25:36;;;;;;;18.27;14.43;;;14.60;99.90;;;;;;5086237;28;20423;-38
2022/05/24 03:28:03;;;;;;;15.57;13.97;;;14.60;99.90;;;;;;5084812;28;20526;-38
2022/05/24 03:30:30;;;;;;;16.60;14.10;;;14.70;99.90;;;;;;5086153;28;20939;-41
2022/05/24 03:32:56;;;;;;;15.93;11.87;;;14.60;99.90;;;;;;5084590;28;20509;-39
2022/05/24 03:35:22;;;;;;;18.03;11.27;;;14.70;99.90;;;;;;5086057;28;20510;-42
2022/05/24 03:37:48;;;;;;;13.97;11.63;;;14.60;99.90;;;;;;5085089;28;20307;-42
2022/05/24 03:40:14;;;;;;;13.30;10.73;;;14.60;99.90;;;;;;5085443;28;21170;-37
2022/05/24 03:42:40;;;;;;;12.37;9.87;;;14.60;99.90;;;;;;5085913;28;20181;-38
2022/05/24 03:45:07;;;;;;;11.67;10.47;;;14.50;99.90;;;;;;5084919;28;20551;-40
2022/05/24 03:47:34;;;;;;;14.50;12.90;;;14.60;99.90;;;;;;5085009;28;20200;-39
2022/05/24 03:50:00;;;;;;;12.73;11.40;;;14.60;99.90;;;;;;5096132;28;20433;-39
2022/05/24 03:52:25;;;;;;;15.17;12.00;;;14.60;99.90;;;;;;5099832;28;20429;-37
2022/05/24 03:54:51;;;;;;;13.00;10.23;;;14.50;99.90;;;;;;5104251;28;20192;-42
2022/05/24 04:00:02;;;;;;;9.40;7.43;;;14.60;99.90;;;;;;5084554;28;20904;-38
2022/05/24 04:02:27;;;;;;;8.77;7.67;;;14.60;99.90;;;;;;5084239;28;20434;-42
2022/05/24 04:04:53;;;;;;;8.77;6.70;;;14.60;99.90;;;;;;5085301;28;20433;-39
2022/05/24 04:07:18;;;;;;;8.27;7.13;;;14.50;99.90;;;;;;5083781;28;20196;-39
2022/05/24 04:09:45;;;;;;;15.80;7.77;;;14.40;99.90;;;;;;5071338;28;20219;-37
2022/05/24 04:12:10;;;;;;;15.40;8.03;;;14.50;99.90;;;;;;5071656;28;20216;-39
2022/05/24 04:14:36;;;;;;;13.47;7.97;;;14.40;99.90;;;;;;5070720;28;20435;-41
2022/05/24 04:17:02;;;;;;;10.83;7.20;;;14.40;99.90;;;;;;5070989;28;20215;-38
2022/05/24 04:19:28;;;;;;;8.30;7.30;;;14.30;99.90;;;;;;5071585;28;20433;-38
2022/05/24 04:21:54;;;;;;;8.53;6.33;;;14.30;99.90;;;;;;5071151;28;20430;-40
2022/05/24 04:24:19;;;;;;;8.67;7.10;;;14.20;99.90;;;;;;5071949;28;20197;-38
2022/05/24 04:26:46;;;;;;;7.37;6.40;;;14.20;99.90;;;;;;5070867;28;20203;-38
2022/05/24 04:29:15;;;;;;;12.07;6.63;;;14.20;99.90;;;;;;5070817;28;20253;-39
2022/05/24 04:31:40;;;;;;;10.73;7.00;;;14.20;99.90;;;;;;5071297;28;20431;-38
2022/05/24 04:34:06;;;;;;;7.30;6.33;;;14.30;99.90;;;;;;5071447;28;20429;-41
2022/05/24 04:36:32;;;;;;;9.53;6.87;;;14.30;99.90;;;;;;5070282;28;20320;-38
2022/05/24 04:38:58;;;;;;;8.60;7.27;;;14.40;99.90;;;;;;5071051;28;20193;-40
2022/05/24 04:44:09;;;;;;;9.93;6.93;;;14.30;99.90;;;;;;5066700;28;20527;-41
2022/05/24 04:49:20;;;;;;;6.13;5.53;;;14.30;99.90;;;;;;5070952;28;20529;-38
2022/05/24 04:51:46;;;;;;;8.00;5.80;;;14.20;99.90;;;;;;5070918;28;20519;-41
2022/05/24 04:54:12;;;;;;;7.27;5.70;;;14.20;99.90;;;;;;5075231;28;20911;-38
2022/05/24 04:56:38;;;;;;;7.03;5.10;;;14.20;99.90;;;;;;5071517;28;20209;-37
2022/05/24 04:59:04;;;;;;;7.00;5.33;;;14.30;99.90;;;;;;5070025;28;21326;-38
2022/05/24 05:01:30;;;;;;;8.70;4.90;;;14.30;99.90;;;;;;5070398;28;20214;-38
2022/05/24 05:03:55;;;;;;;7.03;4.93;;;14.30;99.90;;;;;;5070646;28;20291;-37
2022/05/24 05:06:21;;;;;;;9.97;5.50;;;14.30;99.90;;;;;;5070668;28;20189;-37
2022/05/24 05:08:47;;;;;;;7.63;4.87;;;14.10;99.90;;;;;;5070094;28;20197;-41
2022/05/24 05:11:12;;;;;;;11.17;5.17;;;14.00;99.90;;;;;;5068948;28;20189;-40
2022/05/24 05:13:38;;;;;;;6.93;5.13;;;13.90;99.90;;;;;;5076603;28;20496;-39
2022/05/24 05:16:04;;;;;;;7.60;5.40;;;13.90;99.90;;;;;;5070115;28;20216;-39
2022/05/24 05:18:30;;;;;;;8.90;5.50;;;13.90;99.90;;;;;;5069665;28;20205;-37
2022/05/24 05:20:56;;;;;;;6.43;4.90;;;13.90;99.90;;;;;;5069354;28;20439;-38
2022/05/24 05:23:22;;;;;;;7.87;5.20;;;13.90;99.90;;;;;;5070326;28;20177;-40
2022/05/24 05:25:47;;;;;;;5.40;4.73;;;14.00;99.90;;;;;;5070559;28;20466;-38
2022/05/24 05:28:14;;;;;;;5.40;4.23;;;14.00;99.90;;;;;;5068974;28;20189;-38
2022/05/24 05:33:24;;;;;;;6.67;4.40;;;14.10;99.90;;;;;;5068423;28;20904;-40
2022/05/24 05:35:50;;;;;;;6.30;4.33;;;14.00;99.90;;;;;;5070041;28;20438;-40
2022/05/24 05:38:17;;;;;;;7.77;5.20;;;14.00;99.90;;;;;;5069315;28;20992;-38
2022/05/24 05:40:43;;;;;;;9.43;4.90;;;13.90;99.90;;;;;;5069573;28;20438;-37
2022/05/24 05:43:09;;;;;;;10.60;5.10;;;14.00;99.90;;;;;;5069801;28;20427;-40
2022/05/24 05:45:37;;;;;;;8.40;4.70;;;14.00;99.90;;;;;;5068947;28;20431;-37
2022/05/24 05:48:03;;;;;;;5.47;4.70;;;13.90;99.90;;;;;;5067779;28;20907;-37
2022/05/24 05:50:29;;;;;;;6.47;4.90;;;13.90;99.90;;;;;;5068845;28;20419;-39
2022/05/24 05:52:56;;;;;;;7.10;4.63;;;13.90;99.90;;;;;;5067276;28;20427;-37
2022/05/24 05:55:24;;;;;;;9.10;4.87;;;13.90;99.90;;;;;;5071093;28;20188;-38
2022/05/24 05:57:49;;;;;;;8.67;4.30;;;13.90;99.90;;;;;;5068844;28;20686;-42
2022/05/24 06:00:15;;;;;;;23.60;5.63;;;13.90;99.90;;;;;;5068802;28;20439;-37
2022/05/24 06:02:41;;;;;;;10.83;4.63;;;13.90;99.90;;;;;;5069639;28;20220;-37
2022/05/24 06:05:07;;;;;;;9.50;4.83;;;13.90;99.90;;;;;;5069455;28;20776;-37
2022/05/24 06:07:33;;;;;;;8.30;4.90;;;13.70;99.90;;;;;;5069012;28;20205;-38
2022/05/24 06:09:59;;;;;;;8.10;4.63;;;13.90;99.90;;;;;;5065202;28;21188;-39
2022/05/24 06:12:25;;;;;;;5.97;4.57;;;13.80;99.90;;;;;;5068502;28;20563;-38
2022/05/24 06:14:51;;;;;;;8.10;4.30;;;13.80;99.90;;;;;;5067788;28;20230;-37
2022/05/24 06:17:17;;;;;;;5.33;4.23;;;13.80;99.90;;;;;;5068621;28;20466;-37
2022/05/24 06:19:44;;;;;;;8.17;3.87;;;13.70;99.90;;;;;;5069437;28;20215;-37
2022/05/24 06:22:10;;;;;;;6.77;5.13;;;13.80;99.90;;;;;;5069315;28;20457;-37
2022/05/24 06:24:37;;;;;;;6.90;3.93;;;13.70;99.90;;;;;;5069391;28;20959;-38
2022/05/24 06:27:03;;;;;;;8.23;4.67;;;13.60;99.90;;;;;;5068376;28;20498;-38
2022/05/24 06:29:33;;;;;;;4.50;3.50;;;13.60;99.90;;;;;;5068660;28;20775;-37
2022/05/24 06:32:01;;;;;;;5.33;3.67;;;13.70;99.90;;;;;;5068877;28;20430;-38
2022/05/24 06:34:29;;;;;;;8.57;4.83;;;13.60;99.90;;;;;;5069195;28;20820;-38
2022/05/24 06:36:56;;;;;;;8.43;3.80;;;13.50;99.90;;;;;;5068496;28;20494;-38
2022/05/24 06:39:22;;;;;;;7.67;3.73;;;13.50;99.90;;;;;;5068960;28;20466;-38
2022/05/24 06:41:47;;;;;;;6.77;3.53;;;13.50;99.90;;;;;;5069067;28;20424;-37
2022/05/24 06:44:14;;;;;;;7.40;2.93;;;13.60;99.90;;;;;;5068143;28;20455;-37
2022/05/24 06:46:40;;;;;;;5.63;3.20;;;13.60;99.90;;;;;;5068252;28;20291;-38
2022/05/24 06:49:05;;;;;;;5.73;3.10;;;13.70;99.90;;;;;;5071452;28;20526;-37
2022/05/24 06:51:31;;;;;;;4.03;2.47;;;13.60;99.90;;;;;;5089114;28;20196;-39
2022/05/24 06:53:57;;;;;;;5.37;2.80;;;13.50;99.90;;;;;;5077404;28;20197;-40
2022/05/24 06:56:22;;;;;;;5.67;3.57;;;13.50;99.90;;;;;;5088888;28;20294;-37
2022/05/24 06:58:48;;;;;;;7.10;3.80;;;13.40;99.90;;;;;;5071855;28;20607;-39
2022/05/24 07:03:58;;;;;;;6.03;3.10;;;13.40;99.90;;;;;;5068933;28;20185;-37
2022/05/24 07:06:25;;;;;;;3.90;3.20;;;13.50;99.90;;;;;;5068810;28;20526;-40
2022/05/24 07:08:51;;;;;;;6.10;2.80;;;13.40;99.90;;;;;;5068406;28;20577;-40
2022/05/24 07:11:19;;;;;;;4.23;2.50;;;13.40;99.90;;;;;;5068778;28;20502;-37
2022/05/24 07:13:45;;;;;;;4.57;2.40;;;13.40;99.90;;;;;;5068659;28;20962;-37
2022/05/24 07:16:10;;;;;;;4.60;2.40;;;13.30;99.90;;;;;;5067693;28;20471;-38
2022/05/24 07:18:37;;;;;;;5.53;2.87;;;13.30;99.90;;;;;;5075412;28;20418;-38
2022/05/24 07:21:04;;;;;;;4.40;2.70;;;13.40;99.90;;;;;;5068721;28;20423;-39
2022/05/24 07:23:32;;;;;;;2.60;2.37;;;13.60;99.90;;;;;;5068622;28;21317;-39
2022/05/24 07:26:12;;;;;;;3.33;2.30;;;13.70;99.90;;;;;;5068856;28;20427;-37
2022/05/24 07:28:38;;;;;;;4.40;2.70;;;13.60;99.90;;;;;;5068178;28;20481;-37
2022/05/24 07:31:04;;;;;;;7.00;2.30;;;13.40;99.90;;;;;;5068009;28;20437;-37
2022/05/24 07:33:30;;;;;;;2.83;2.40;;;13.40;99.90;;;;;;5068376;28;20197;-38
2022/05/24 07:35:56;;;;;;;4.00;2.27;;;13.50;99.90;;;;;;5068440;28;20243;-40
2022/05/24 07:38:22;;;;;;;4.80;2.80;;;13.50;99.90;;;;;;5067730;28;20419;-37
2022/05/24 07:46:16;;;;;;;5.83;2.30;;;13.60;99.90;;;;;;5071195;28;20470;-37
2022/05/24 07:48:43;;;;;;;4.63;3.43;;;13.80;99.90;;;;;;5071224;28;20419;-38
2022/05/24 07:51:09;;;;;;;2.23;1.90;;;13.90;99.90;;;;;;5072198;28;20455;-37
2022/05/24 07:53:36;;;;;;;4.63;2.17;;;14.00;99.90;;;;;;5070572;28;20908;-40
2022/05/24 07:56:02;;;;;;;3.80;2.30;;;14.00;99.90;;;;;;5071936;28;21106;-37
2022/05/24 07:58:28;;;;;;;3.70;2.03;;;13.90;99.90;;;;;;5071348;28;20431;-37
2022/05/24 08:00:58;;;;;;;5.33;2.43;;;13.90;99.90;;;;;;5070204;28;20448;-37
2022/05/24 08:03:24;;;;;;;3.70;2.63;;;14.10;99.90;;;;;;5071835;28;20476;-42
2022/05/24 08:05:50;;;;;;;4.10;2.67;;;14.30;99.90;;;;;;5071854;28;20473;-37
2022/05/24 08:08:17;;;;;;;4.33;2.90;;;14.30;99.90;;;;;;5071400;28;20925;-38
2022/05/24 08:10:43;;;;;;;3.43;2.60;;;14.40;99.90;;;;;;5071892;28;20427;-41
2022/05/24 08:13:12;;;;;;;3.07;2.60;;;14.40;99.90;;;;;;5071682;28;20431;-38
2022/05/24 08:15:38;;;;;;;5.17;2.97;;;14.60;99.90;;;;;;5071212;28;20838;-41
2022/05/24 08:18:05;;;;;;;4.00;3.60;;;14.60;99.90;;;;;;5066539;28;20553;-39
2022/05/24 08:20:31;;;;;;;6.13;3.50;;;14.60;99.90;;;;;;5071542;28;20453;-41
2022/05/24 08:22:58;;;;;;;3.33;3.03;;;14.70;99.90;;;;;;5071781;28;20431;-39
2022/05/24 08:25:25;;;;;;;3.70;3.10;;;14.80;99.90;;;;;;5071521;28;20431;-40
2022/05/24 08:27:51;;;;;;;3.57;3.17;;;14.70;99.90;;;;;;5070791;28;20427;-39
2022/05/24 08:30:18;;;;;;;4.07;3.37;;;14.80;99.90;;;;;;5070723;28;20458;-42
2022/05/24 08:32:46;;;;;;;3.10;2.90;;;14.80;99.90;;;;;;5071382;28;20430;-40
2022/05/24 08:35:13;;;;;;;4.07;3.20;;;15.00;99.90;;;;;;5071333;28;20957;-40
2022/05/24 08:37:41;;;;;;;4.37;3.00;;;15.20;99.90;;;;;;5069425;28;20863;-42
2022/05/24 08:40:07;;;;;;;2.90;2.47;;;15.40;99.90;;;;;;5071145;28;20419;-39
2022/05/24 08:43:09;;;;;;;2.47;2.27;;;15.40;99.90;;;;;;5071040;28;20523;-40
2022/05/24 08:48:51;;;;;;;2.70;2.50;;;15.30;99.90;;;;;;5070542;28;20421;-41
2022/05/24 08:51:22;;;;;;;4.73;2.73;;;15.30;99.90;;;;;;5069709;28;20864;-39
2022/05/24 08:53:51;;;;;;;2.93;2.63;;;15.50;99.90;;;;;;5070117;28;20427;-39
2022/05/24 08:56:32;;;;;;;3.33;2.27;;;15.70;99.90;;;;;;5070825;28;20462;-41
2022/05/24 08:59:15;;;;;;;2.90;2.03;;;15.70;99.90;;;;;;5070732;28;20427;-39
2022/05/24 09:01:42;;;;;;;3.03;2.10;;;15.80;99.90;;;;;;5070009;28;20441;-39
2022/05/24 09:04:09;;;;;;;9.10;2.83;;;15.80;99.90;;;;;;5068387;28;20472;-40
2022/05/24 09:06:58;;;;;;;3.03;2.23;;;15.90;99.90;;;;;;5070154;28;20938;-39
2022/05/24 09:09:39;;;;;;;4.33;3.17;;;15.90;99.90;;;;;;5070557;28;20438;-39
2022/05/24 09:12:17;;;;;;;4.27;2.30;;;16.00;99.90;;;;;;5070476;28;20423;-39
2022/05/24 09:15:36;;;;;;;4.03;2.73;;;16.00;99.90;;;;;;5070827;28;20419;-42
2022/05/24 09:18:39;;;;;;;3.87;2.70;;;16.00;99.90;;;;;;5043464;28;20575;-39
2022/05/24 09:21:05;;;;;;;3.40;2.50;;;15.90;99.90;;;;;;5065885;28;20415;-41
2022/05/24 09:23:42;;;;;;;2.90;2.40;;;15.90;99.90;;;;;;5070153;28;20427;-39
2022/05/24 09:26:13;;;;;;;3.37;2.53;;;15.50;99.90;;;;;;5070165;28;20431;-40
2022/05/24 09:29:10;;;;;;;4.80;2.50;;;15.50;99.90;;;;;;5069779;28;20938;-39
2022/05/24 09:31:41;;;;;;;5.33;2.60;;;15.40;99.90;;;;;;5069523;28;20462;-40
2022/05/24 09:34:13;;;;;;;4.47;2.47;;;15.50;99.90;;;;;;5070175;28;20865;-41
2022/05/24 09:36:53;;;;;;;7.20;2.77;;;15.60;99.90;;;;;;5069365;28;20840;-39
2022/05/24 09:39:31;;;;;;;3.83;1.93;;;15.70;99.90;;;;;;5070078;28;20512;-41
2022/05/24 09:42:09;;;;;;;3.17;2.30;;;15.80;99.90;;;;;;5070184;28;20907;-40
2022/05/24 09:44:46;;;;;;;2.53;2.00;;;15.90;99.90;;;;;;5070003;28;20406;-40
2022/05/24 09:47:21;;;;;;;4.13;2.30;;;16.00;99.90;;;;;;5068327;28;20437;-42
2022/05/24 09:49:46;;;;;;;2.90;2.10;;;16.00;99.90;;;;;;5063606;28;20422;-39
2022/05/24 09:52:14;;;;;;;2.10;1.80;;;16.00;99.90;;;;;;5069901;28;20434;-39
2022/05/24 09:55:00;;;;;;;4.13;1.70;;;16.00;99.90;;;;;;5067896;28;20193;-40
2022/05/24 09:57:32;;;;;;;2.03;1.60;;;16.00;99.90;;;;;;5068904;28;20992;-40
2022/05/24 10:00:20;;;;;;;2.13;1.50;;;15.90;99.90;;;;;;5069803;28;20431;-37
2022/05/24 10:02:47;;;;;;;2.40;1.70;;;16.00;99.90;;;;;;5069125;28;20476;-38
2022/05/24 10:05:20;;;;;;;3.30;1.70;;;15.90;99.90;;;;;;5069415;28;20941;-40
2022/05/24 10:08:02;;;;;;;2.23;1.57;;;15.60;99.90;;;;;;5068526;28;20430;-38
2022/05/24 10:10:36;;;;;;;5.03;3.10;;;15.60;99.90;;;;;;5069499;28;20828;-40
2022/05/24 10:13:19;;;;;;;4.63;1.80;;;15.60;99.90;;;;;;5069737;28;20427;-41
2022/05/24 10:15:54;;;;;;;1.80;1.67;;;15.80;99.90;;;;;;5068499;28;20480;-41
2022/05/24 10:18:36;;;;;;;3.53;1.90;;;15.70;99.90;;;;;;5066349;28;21547;-41
2022/05/24 10:21:26;;;;;;;3.00;1.77;;;15.70;99.90;;;;;;5069136;28;20426;-43
2022/05/24 10:24:01;;;;;;;3.57;1.67;;;15.80;99.90;;;;;;5058527;28;20447;-40
2022/05/24 10:26:56;;;;;;;2.40;1.70;;;16.00;99.90;;;;;;5068798;28;20423;-39
2022/05/24 10:29:32;;;;;;;1.93;1.60;;;16.30;99.90;;;;;;5069417;28;20441;-39
2022/05/24 10:32:03;;;;;;;5.30;2.33;;;16.50;99.90;;;;;;5068544;28;20434;-39
2022/05/24 10:38:19;;;;;;;1.93;1.60;;;16.90;99.90;;;;;;5065473;28;21092;-39
2022/05/24 10:40:49;;;;;;;4.33;1.80;;;16.50;99.90;;;;;;5049172;28;20941;-41
2022/05/24 10:43:36;;;;;;;1.73;1.40;;;16.40;99.90;;;;;;5067943;28;20434;-39
2022/05/24 10:46:10;;;;;;;2.63;1.30;;;16.30;99.90;;;;;;5068558;28;20832;-40
2022/05/24 10:49:01;;;;;;;2.03;1.43;;;16.50;99.90;;;;;;5068360;28;21027;-39
2022/05/24 10:52:03;;;;;;;3.23;1.67;;;16.80;99.90;;;;;;5067270;28;20484;-43
2022/05/24 10:54:56;;;;;;;6.30;2.07;;;17.10;99.90;;;;;;5068172;28;20498;-41
2022/05/24 10:57:28;;;;;;;3.33;1.80;;;17.20;99.90;;;;;;5027074;28;20478;-40
2022/05/24 11:00:08;;;;;;;3.83;1.90;;;17.40;99.90;;;;;;5068843;28;20427;-39
2022/05/24 11:02:55;;;;;;;1.80;1.60;;;17.20;99.90;;;;;;5068098;28;21142;-40
2022/05/24 11:05:35;;;;;;;2.80;1.43;;;17.00;99.90;;;;;;5066742;28;20427;-39
2022/05/24 11:08:19;;;;;;;2.27;1.60;;;17.00;99.90;;;;;;5068055;28;20517;-41
2022/05/24 11:10:48;;;;;;;3.43;1.70;;;17.30;99.90;;;;;;5068949;28;20851;-39
2022/05/24 11:13:20;;;;;;;3.77;1.60;;;17.40;99.90;;;;;;5068822;28;20432;-42
2022/05/24 11:16:03;;;;;;;2.47;1.50;;;17.30;99.90;;;;;;5068653;28;20419;-40
2022/05/24 11:18:29;;;;;;;2.13;1.50;;;17.40;99.90;;;;;;5077946;28;20954;-40
2022/05/24 11:21:14;;;;;;;2.57;1.17;;;17.50;99.90;;;;;;5072904;28;20832;-39
2022/05/24 11:23:52;;;;;;;2.60;1.67;;;17.70;99.90;;;;;;5059472;28;20427;-40
2022/05/24 11:26:30;;;;;;;1.93;1.63;;;17.90;99.90;;;;;;5072659;28;20443;-41
2022/05/24 11:29:10;;;;;;;2.57;1.53;;;17.70;99.90;;;;;;5071825;28;21051;-39
2022/05/24 11:31:38;;;;;;;4.83;1.90;;;17.60;99.90;;;;;;5071929;28;20472;-40
2022/05/24 11:34:18;;;;;;;1.73;1.30;;;17.50;99.90;;;;;;5072394;28;20909;-39
2022/05/24 11:37:22;;;;;;;3.53;1.37;;;17.30;99.90;;;;;;5064924;28;20459;-39
2022/05/24 11:39:49;;;;;;;4.70;1.73;;;16.90;99.90;;;;;;5072030;28;20423;-39
2022/05/24 11:42:34;;;;;;;2.27;1.60;;;16.90;99.90;;;;;;5071051;28;20419;-39
2022/05/24 11:45:20;;;;;;;3.93;1.67;;;16.80;99.90;;;;;;5072553;28;20449;-39
2022/05/24 11:47:55;;;;;;;1.90;1.60;;;16.70;99.90;;;;;;5069879;28;20528;-40
2022/05/24 11:50:50;;;;;;;2.80;1.60;;;16.60;99.90;;;;;;5072163;28;20797;-39
2022/05/24 11:53:34;;;;;;;2.30;1.90;;;16.50;99.90;;;;;;5057389;28;20415;-39
2022/05/24 11:56:03;;;;;;;2.10;1.50;;;16.60;99.90;;;;;;5068162;28;20518;-38
2022/05/24 11:58:31;;;;;;;4.07;1.60;;;16.90;99.90;;;;;;5070570;28;20483;-44
2022/05/24 12:00:58;;;;;;;3.13;1.83;;;17.10;99.90;;;;;;5072133;28;20410;-39
2022/05/24 12:09:17;;;;;;;1.87;1.67;;;17.40;99.90;;;;;;5058685;28;20427;-38
2022/05/24 12:11:43;;;;;;;2.60;1.63;;;17.50;99.90;;;;;;5071723;28;20427;-37
2022/05/24 12:14:14;;;;;;;3.70;1.90;;;17.60;99.90;;;;;;5071969;28;20542;-37
2022/05/24 12:17:07;;;;;;;2.47;1.53;;;17.70;99.90;;;;;;5070345;28;20455;-38
2022/05/24 12:19:42;;;;;;;2.23;1.20;;;17.80;99.90;;;;;;5071206;28;20935;-37
2022/05/24 12:22:10;;;;;;;1.83;1.00;;;18.00;99.90;;;;;;5071593;28;20427;-37
2022/05/24 12:24:36;;;;;;;1.47;1.10;;;18.20;99.90;;;;;;5071679;28;20445;-40
2022/05/24 12:27:17;;;;;;;2.03;1.40;;;18.30;99.90;;;;;;5070737;28;20415;-38
2022/05/24 12:29:46;;;;;;;1.70;1.10;;;18.30;99.90;;;;;;5071114;28;20193;-38
2022/05/24 12:32:16;;;;;;;1.47;1.30;;;18.20;99.90;;;;;;5070739;28;20431;-39
2022/05/24 12:34:42;;;;;;;3.00;2.10;;;17.80;99.90;;;;;;5071497;28;20934;-38
2022/05/24 12:37:35;;;;;;;2.73;1.40;;;17.80;99.90;;;;;;5070520;28;20443;-39
2022/05/24 12:40:23;;;;;;;1.30;1.20;;;17.70;99.90;;;;;;5070925;28;20208;-38
2022/05/24 12:42:51;;;;;;;3.90;1.43;;;17.70;99.90;;;;;;5071182;28;20914;-40
2022/05/24 12:45:26;;;;;;;1.80;1.20;;;17.70;99.90;;;;;;5071529;28;21079;-38
2022/05/24 12:47:53;;;;;;;3.77;1.53;;;17.60;99.90;;;;;;5069577;28;20525;-37
2022/05/24 12:50:34;;;;;;;2.13;1.00;;;17.60;99.90;;;;;;5070918;28;20519;-41
2022/05/24 12:53:05;;;;;;;2.53;1.10;;;17.60;99.90;;;;;;5069386;28;20424;-40
2022/05/24 12:58:34;;;;;;;1.87;1.27;;;17.70;99.90;;;;;;5070218;28;20558;-40
2022/05/24 13:01:25;;;;;;;2.27;1.10;;;17.60;99.90;;;;;;5071016;28;20439;-40
2022/05/24 13:04:09;;;;;;;1.70;1.10;;;17.60;99.90;;;;;;5069949;28;20434;-39
2022/05/24 13:06:38;;;;;;;1.13;1.03;;;17.50;99.90;;;;;;5070248;28;20415;-39
2022/05/24 13:09:22;;;;;;;2.03;1.53;;;17.50;99.90;;;;;;5070364;28;20423;-39
2022/05/24 13:12:01;;;;;;;3.37;1.37;;;17.40;99.90;;;;;;5070666;28;20791;-39
2022/05/24 13:14:42;;;;;;;1.60;1.30;;;17.20;99.90;;;;;;5070823;28;20823;-39
2022/05/24 13:17:09;;;;;;;0.97;0.97;;;17.20;99.90;;;;;;5068839;28;20459;-40
2022/05/24 13:19:49;;;;;;;1.53;1.20;;;17.30;99.90;;;;;;5070593;28;20430;-43
2022/05/24 13:22:16;;;;;;;2.80;1.40;;;17.20;99.90;;;;;;5070421;28;20582;-39
2022/05/24 13:25:12;;;;;;;1.80;1.40;;;17.20;99.90;;;;;;5070302;28;20962;-39
2022/05/24 13:27:50;;;;;;;1.10;0.90;;;17.10;99.90;;;;;;5055287;28;20429;-39
2022/05/24 13:35:50;;;;;;;1.70;1.10;;;17.20;99.90;;;;;;5069903;28;20446;-39
2022/05/24 13:38:26;;;;;;;1.10;1.00;;;17.20;99.70;;;;;;5068195;28;20470;-40
2022/05/24 13:40:55;;;;;;;1.03;0.90;;;17.30;99.70;;;;;;5069138;28;20510;-40
2022/05/24 13:44:04;;;;;;;1.57;0.90;;;17.40;99.30;;;;;;5070219;28;20419;-39
2022/05/24 13:46:30;;;;;;;1.77;0.83;;;17.60;99.90;;;;;;5069174;28;20431;-39
2022/05/24 13:48:59;;;;;;;1.40;0.73;;;17.60;97.50;;;;;;5068386;28;20968;-40
2022/05/24 13:51:28;;;;;;;1.50;0.97;;;17.50;98.40;;;;;;5069728;28;20205;-39
2022/05/24 13:53:55;;;;;;;3.00;1.33;;;17.60;98.60;;;;;;5068976;28;20435;-41
2022/05/24 13:56:50;;;;;;;2.87;0.97;;;17.80;99.70;;;;;;5069717;28;20447;-40